sensor_id;sensor_type;location;lat;lon;timestamp;temperature;humidity
48162;DHT22;33950;48.154;16.316;2022-09-12T00:02:16;16.40;99.90
48162;DHT22;33950;48.154;16.316;2022-09-12T00:05:03;16.30;99.90
48162;DHT22;33950;48.154;16.316;2022-09-12T00:07:49;16.40;99.90
48162;DHT22;33950;48.154;16.316;2022-09-12T00:10:37;16.40;99.90
48162;DHT22;33950;48.154;16.316;2022-09-12T00:13:24;16.40;99.90
48162;DHT22;33950;48.154;16.316;2022-09-12T00:16:14;16.40;99.90
48162;DHT22;33950;48.154;16.316;2022-09-12T00:19:03;16.50;99.90
48162;DHT22;33950;48.154;16.316;2022-09-12T00:21:49;16.60;99.90
48162;DHT22;33950;48.154;16.316;2022-09-12T00:24:35;16.70;99.90
48162;DHT22;33950;48.154;16.316;2022-09-12T00:27:22;16.70;99.90
48162;DHT22;33950;48.154;16.316;2022-09-12T00:30:10;16.70;99.90
48162;DHT22;33950;48.154;16.316;2022-09-12T00:32:56;16.60;99.90
48162;DHT22;33950;48.154;16.316;2022-09-12T00:35:43;16.50;99.90
48162;DHT22;33950;48.154;16.316;2022-09-12T00:38:30;16.50;99.90
48162;DHT22;33950;48.154;16.316;2022-09-12T00:41:18;16.50;99.90
48162;DHT22;33950;48.154;16.316;2022-09-12T00:47:26;16.40;99.90
48162;DHT22;33950;48.154;16.316;2022-09-12T00:50:15;16.40;99.90
48162;DHT22;33950;48.154;16.316;2022-09-12T00:53:03;16.30;99.90
48162;DHT22;33950;48.154;16.316;2022-09-12T00:55:50;16.40;99.90
48162;DHT22;33950;48.154;16.316;2022-09-12T00:58:40;16.30;99.90
48162;DHT22;33950;48.154;16.316;2022-09-12T01:01:27;16.40;99.90
48162;DHT22;33950;48.154;16.316;2022-09-12T01:04:17;16.40;99.90
48162;DHT22;33950;48.154;16.316;2022-09-12T01:07:05;16.50;99.90
48162;DHT22;33950;48.154;16.316;2022-09-12T01:09:52;16.50;99.90
48162;DHT22;33950;48.154;16.316;2022-09-12T01:12:39;16.50;99.90
48162;DHT22;33950;48.154;16.316;2022-09-12T01:15:26;16.40;99.90
48162;DHT22;33950;48.154;16.316;2022-09-12T01:18:16;16.50;99.90
48162;DHT22;33950;48.154;16.316;2022-09-12T01:21:16;16.60;99.90
48162;DHT22;33950;48.154;16.316;2022-09-12T01:27:43;16.70;99.90
48162;DHT22;33950;48.154;16.316;2022-09-12T01:30:49;16.80;99.90
48162;DHT22;33950;48.154;16.316;2022-09-12T01:33:45;16.80;99.90
48162;DHT22;33950;48.154;16.316;2022-09-12T01:36:40;16.80;99.90
48162;DHT22;33950;48.154;16.316;2022-09-12T01:39:34;16.80;99.90
48162;DHT22;33950;48.154;16.316;2022-09-12T01:42:30;16.70;99.90
48162;DHT22;33950;48.154;16.316;2022-09-12T01:45:25;16.60;99.90
48162;DHT22;33950;48.154;16.316;2022-09-12T01:48:16;16.50;99.90
48162;DHT22;33950;48.154;16.316;2022-09-12T01:51:06;16.30;99.90
48162;DHT22;33950;48.154;16.316;2022-09-12T01:53:59;16.30;99.90
48162;DHT22;33950;48.154;16.316;2022-09-12T01:56:52;16.30;99.90
48162;DHT22;33950;48.154;16.316;2022-09-12T01:59:43;16.30;99.90
48162;DHT22;33950;48.154;16.316;2022-09-12T02:02:34;16.20;99.90
48162;DHT22;33950;48.154;16.316;2022-09-12T02:05:27;16.20;99.90
48162;DHT22;33950;48.154;16.316;2022-09-12T02:08:19;16.20;99.90
48162;DHT22;33950;48.154;16.316;2022-09-12T02:11:09;16.20;99.90
48162;DHT22;33950;48.154;16.316;2022-09-12T02:14:00;16.20;99.90
48162;DHT22;33950;48.154;16.316;2022-09-12T02:16:50;16.20;99.90
48162;DHT22;33950;48.154;16.316;2022-09-12T02:19:40;16.10;99.90
48162;DHT22;33950;48.154;16.316;2022-09-12T02:22:30;16.00;99.90
48162;DHT22;33950;48.154;16.316;2022-09-12T02:25:21;16.00;99.90
48162;DHT22;33950;48.154;16.316;2022-09-12T02:28:11;15.90;99.90
48162;DHT22;33950;48.154;16.316;2022-09-12T02:31:03;16.00;99.90
48162;DHT22;33950;48.154;16.316;2022-09-12T02:34:00;15.90;99.90
48162;DHT22;33950;48.154;16.316;2022-09-12T02:36:53;15.90;99.90
48162;DHT22;33950;48.154;16.316;2022-09-12T02:39:46;15.90;99.90
48162;DHT22;33950;48.154;16.316;2022-09-12T02:42:32;15.90;99.90
48162;DHT22;33950;48.154;16.316;2022-09-12T02:45:18;16.00;99.90
48162;DHT22;33950;48.154;16.316;2022-09-12T02:48:09;16.10;99.90
48162;DHT22;33950;48.154;16.316;2022-09-12T02:50:56;16.20;99.90
48162;DHT22;33950;48.154;16.316;2022-09-12T02:53:42;16.20;99.90
48162;DHT22;33950;48.154;16.316;2022-09-12T02:56:30;16.10;99.90
48162;DHT22;33950;48.154;16.316;2022-09-12T02:59:18;16.10;99.90
48162;DHT22;33950;48.154;16.316;2022-09-12T03:02:15;16.10;99.90
48162;DHT22;33950;48.154;16.316;2022-09-12T03:05:24;16.00;99.90
48162;DHT22;33950;48.154;16.316;2022-09-12T03:08:25;16.10;99.90
48162;DHT22;33950;48.154;16.316;2022-09-12T03:11:26;16.10;99.90
48162;DHT22;33950;48.154;16.316;2022-09-12T03:14:20;16.10;99.90
48162;DHT22;33950;48.154;16.316;2022-09-12T03:17:13;16.10;99.90
48162;DHT22;33950;48.154;16.316;2022-09-12T03:20:08;16.20;99.90
48162;DHT22;33950;48.154;16.316;2022-09-12T03:22:59;16.20;99.90
48162;DHT22;33950;48.154;16.316;2022-09-12T03:25:50;16.10;99.90
48162;DHT22;33950;48.154;16.316;2022-09-12T03:28:38;16.00;99.90
48162;DHT22;33950;48.154;16.316;2022-09-12T03:31:27;16.10;99.90
48162;DHT22;33950;48.154;16.316;2022-09-12T03:34:13;16.20;99.90
48162;DHT22;33950;48.154;16.316;2022-09-12T03:36:59;16.20;99.90
48162;DHT22;33950;48.154;16.316;2022-09-12T03:39:45;16.20;99.90
48162;DHT22;33950;48.154;16.316;2022-09-12T03:42:31;16.30;99.90
48162;DHT22;33950;48.154;16.316;2022-09-12T03:45:17;16.30;99.90
48162;DHT22;33950;48.154;16.316;2022-09-12T03:48:05;16.40;99.90
48162;DHT22;33950;48.154;16.316;2022-09-12T03:50:51;16.50;99.90
48162;DHT22;33950;48.154;16.316;2022-09-12T03:53:37;16.60;99.90
48162;DHT22;33950;48.154;16.316;2022-09-12T03:56:23;16.70;99.90
48162;DHT22;33950;48.154;16.316;2022-09-12T03:59:10;16.60;99.90
48162;DHT22;33950;48.154;16.316;2022-09-12T04:01:56;16.60;99.90
48162;DHT22;33950;48.154;16.316;2022-09-12T04:04:44;16.60;99.90
48162;DHT22;33950;48.154;16.316;2022-09-12T04:07:33;16.70;99.90
48162;DHT22;33950;48.154;16.316;2022-09-12T04:10:19;16.60;99.90
48162;DHT22;33950;48.154;16.316;2022-09-12T04:13:05;16.60;99.90
48162;DHT22;33950;48.154;16.316;2022-09-12T04:15:55;16.60;99.90
48162;DHT22;33950;48.154;16.316;2022-09-12T04:18:42;16.80;99.90
48162;DHT22;33950;48.154;16.316;2022-09-12T04:21:29;16.80;99.90
48162;DHT22;33950;48.154;16.316;2022-09-12T04:24:15;16.90;99.90
48162;DHT22;33950;48.154;16.316;2022-09-12T04:27:02;16.90;99.90
48162;DHT22;33950;48.154;16.316;2022-09-12T04:29:48;17.00;99.90
48162;DHT22;33950;48.154;16.316;2022-09-12T04:32:34;16.90;99.90
48162;DHT22;33950;48.154;16.316;2022-09-12T04:35:20;16.90;99.90
48162;DHT22;33950;48.154;16.316;2022-09-12T04:38:07;16.90;99.90
48162;DHT22;33950;48.154;16.316;2022-09-12T04:40:53;16.80;99.90
48162;DHT22;33950;48.154;16.316;2022-09-12T04:43:40;16.80;99.90
48162;DHT22;33950;48.154;16.316;2022-09-12T04:46:28;16.80;99.90
48162;DHT22;33950;48.154;16.316;2022-09-12T04:49:14;16.70;99.90
48162;DHT22;33950;48.154;16.316;2022-09-12T04:52:04;16.70;99.90
48162;DHT22;33950;48.154;16.316;2022-09-12T04:54:51;16.70;99.90
48162;DHT22;33950;48.154;16.316;2022-09-12T04:57:38;16.60;99.90
48162;DHT22;33950;48.154;16.316;2022-09-12T05:00:24;16.60;99.90
48162;DHT22;33950;48.154;16.316;2022-09-12T05:03:10;16.50;99.90
48162;DHT22;33950;48.154;16.316;2022-09-12T05:05:56;16.60;99.90
48162;DHT22;33950;48.154;16.316;2022-09-12T05:08:42;16.50;99.90
48162;DHT22;33950;48.154;16.316;2022-09-12T05:11:31;16.70;99.90
48162;DHT22;33950;48.154;16.316;2022-09-12T05:14:18;16.70;99.90
48162;DHT22;33950;48.154;16.316;2022-09-12T05:17:04;16.60;99.90
48162;DHT22;33950;48.154;16.316;2022-09-12T05:19:50;16.60;99.90
48162;DHT22;33950;48.154;16.316;2022-09-12T05:22:37;16.70;99.90
48162;DHT22;33950;48.154;16.316;2022-09-12T05:25:23;16.60;99.90
48162;DHT22;33950;48.154;16.316;2022-09-12T05:28:10;16.60;99.90
48162;DHT22;33950;48.154;16.316;2022-09-12T05:31:00;16.60;99.90
48162;DHT22;33950;48.154;16.316;2022-09-12T05:33:49;16.70;99.90
48162;DHT22;33950;48.154;16.316;2022-09-12T05:36:35;16.70;99.90
48162;DHT22;33950;48.154;16.316;2022-09-12T05:39:22;16.70;99.90
48162;DHT22;33950;48.154;16.316;2022-09-12T05:42:08;16.70;99.90
48162;DHT22;33950;48.154;16.316;2022-09-12T05:44:55;16.80;99.90
48162;DHT22;33950;48.154;16.316;2022-09-12T05:47:43;16.80;99.90
48162;DHT22;33950;48.154;16.316;2022-09-12T05:50:31;16.70;99.90
48162;DHT22;33950;48.154;16.316;2022-09-12T05:53:17;16.60;99.90
48162;DHT22;33950;48.154;16.316;2022-09-12T05:56:06;16.60;99.90
48162;DHT22;33950;48.154;16.316;2022-09-12T05:58:54;16.60;99.90
48162;DHT22;33950;48.154;16.316;2022-09-12T06:01:42;16.60;99.90
48162;DHT22;33950;48.154;16.316;2022-09-12T06:04:29;16.60;99.90
48162;DHT22;33950;48.154;16.316;2022-09-12T06:07:15;16.70;99.90
48162;DHT22;33950;48.154;16.316;2022-09-12T06:10:01;16.80;99.90
48162;DHT22;33950;48.154;16.316;2022-09-12T06:12:47;16.80;99.90
48162;DHT22;33950;48.154;16.316;2022-09-12T06:15:33;16.70;99.90
48162;DHT22;33950;48.154;16.316;2022-09-12T06:18:21;16.60;99.90
48162;DHT22;33950;48.154;16.316;2022-09-12T06:21:08;16.80;99.90
48162;DHT22;33950;48.154;16.316;2022-09-12T06:23:55;16.80;99.90
48162;DHT22;33950;48.154;16.316;2022-09-12T06:26:43;16.90;99.90
48162;DHT22;33950;48.154;16.316;2022-09-12T06:29:30;17.00;99.90
48162;DHT22;33950;48.154;16.316;2022-09-12T06:32:17;17.00;99.90
48162;DHT22;33950;48.154;16.316;2022-09-12T06:35:05;17.20;99.90
48162;DHT22;33950;48.154;16.316;2022-09-12T06:37:51;17.20;99.90
48162;DHT22;33950;48.154;16.316;2022-09-12T06:40:40;17.30;99.90
48162;DHT22;33950;48.154;16.316;2022-09-12T06:43:28;17.30;99.90
48162;DHT22;33950;48.154;16.316;2022-09-12T06:46:14;17.30;99.90
48162;DHT22;33950;48.154;16.316;2022-09-12T06:49:00;17.20;99.90
48162;DHT22;33950;48.154;16.316;2022-09-12T06:51:48;17.30;99.90
48162;DHT22;33950;48.154;16.316;2022-09-12T06:54:34;17.50;99.90
48162;DHT22;33950;48.154;16.316;2022-09-12T06:57:20;17.60;99.90
48162;DHT22;33950;48.154;16.316;2022-09-12T07:00:07;17.70;99.90
48162;DHT22;33950;48.154;16.316;2022-09-12T07:02:54;17.80;99.90
48162;DHT22;33950;48.154;16.316;2022-09-12T07:05:41;17.80;99.90
48162;DHT22;33950;48.154;16.316;2022-09-12T07:08:29;17.80;99.90
48162;DHT22;33950;48.154;16.316;2022-09-12T07:11:18;17.80;99.70
48162;DHT22;33950;48.154;16.316;2022-09-12T07:14:06;17.90;99.40
48162;DHT22;33950;48.154;16.316;2022-09-12T07:16:52;17.90;99.20
48162;DHT22;33950;48.154;16.316;2022-09-12T07:19:38;17.80;99.40
48162;DHT22;33950;48.154;16.316;2022-09-12T07:22:24;17.90;99.50
48162;DHT22;33950;48.154;16.316;2022-09-12T07:25:12;17.90;99.20
48162;DHT22;33950;48.154;16.316;2022-09-12T07:27:58;17.80;99.10
48162;DHT22;33950;48.154;16.316;2022-09-12T07:30:44;17.90;99.10
48162;DHT22;33950;48.154;16.316;2022-09-12T07:33:30;17.90;99.10
48162;DHT22;33950;48.154;16.316;2022-09-12T07:36:18;17.90;99.30
48162;DHT22;33950;48.154;16.316;2022-09-12T07:39:05;17.90;99.30
48162;DHT22;33950;48.154;16.316;2022-09-12T07:41:52;18.00;99.40
48162;DHT22;33950;48.154;16.316;2022-09-12T07:44:38;18.00;99.40
48162;DHT22;33950;48.154;16.316;2022-09-12T07:47:24;18.10;99.40
48162;DHT22;33950;48.154;16.316;2022-09-12T07:50:11;18.00;99.50
48162;DHT22;33950;48.154;16.316;2022-09-12T07:52:57;18.00;99.40
48162;DHT22;33950;48.154;16.316;2022-09-12T07:55:43;18.00;99.40
48162;DHT22;33950;48.154;16.316;2022-09-12T07:58:31;18.00;99.30
48162;DHT22;33950;48.154;16.316;2022-09-12T08:01:20;18.00;99.40
48162;DHT22;33950;48.154;16.316;2022-09-12T08:04:07;18.00;99.40
48162;DHT22;33950;48.154;16.316;2022-09-12T08:06:54;18.10;99.40
48162;DHT22;33950;48.154;16.316;2022-09-12T08:09:40;18.20;99.10
48162;DHT22;33950;48.154;16.316;2022-09-12T08:12:26;18.20;99.10
48162;DHT22;33950;48.154;16.316;2022-09-12T08:15:14;18.20;98.80
48162;DHT22;33950;48.154;16.316;2022-09-12T08:18:00;18.30;98.70
48162;DHT22;33950;48.154;16.316;2022-09-12T08:20:46;18.30;98.70
48162;DHT22;33950;48.154;16.316;2022-09-12T08:23:33;18.40;98.70
48162;DHT22;33950;48.154;16.316;2022-09-12T08:26:19;18.40;98.10
48162;DHT22;33950;48.154;16.316;2022-09-12T08:29:05;18.50;98.20
48162;DHT22;33950;48.154;16.316;2022-09-12T08:31:53;18.50;97.90
48162;DHT22;33950;48.154;16.316;2022-09-12T08:34:39;18.50;98.30
48162;DHT22;33950;48.154;16.316;2022-09-12T08:37:28;18.40;97.60
48162;DHT22;33950;48.154;16.316;2022-09-12T08:40:16;18.40;97.80
48162;DHT22;33950;48.154;16.316;2022-09-12T08:43:09;18.60;97.70
48162;DHT22;33950;48.154;16.316;2022-09-12T08:46:03;18.70;97.80
48162;DHT22;33950;48.154;16.316;2022-09-12T08:48:53;18.90;97.30
48162;DHT22;33950;48.154;16.316;2022-09-12T08:51:40;18.80;97.20
48162;DHT22;33950;48.154;16.316;2022-09-12T08:54:29;18.60;97.20
48162;DHT22;33950;48.154;16.316;2022-09-12T08:57:15;18.50;97.30
48162;DHT22;33950;48.154;16.316;2022-09-12T09:00:03;18.50;97.70
48162;DHT22;33950;48.154;16.316;2022-09-12T09:03:08;18.60;97.10
48162;DHT22;33950;48.154;16.316;2022-09-12T09:06:06;18.50;97.30
48162;DHT22;33950;48.154;16.316;2022-09-12T09:09:03;18.60;97.10
48162;DHT22;33950;48.154;16.316;2022-09-12T09:12:02;18.80;97.20
48162;DHT22;33950;48.154;16.316;2022-09-12T09:15:02;19.00;97.10
48162;DHT22;33950;48.154;16.316;2022-09-12T09:17:53;19.10;97.20
48162;DHT22;33950;48.154;16.316;2022-09-12T09:20:44;19.20;96.70
48162;DHT22;33950;48.154;16.316;2022-09-12T09:23:36;19.20;96.00
48162;DHT22;33950;48.154;16.316;2022-09-12T09:26:28;19.20;96.30
48162;DHT22;33950;48.154;16.316;2022-09-12T09:29:17;19.20;96.20
48162;DHT22;33950;48.154;16.316;2022-09-12T09:32:11;19.20;96.00
48162;DHT22;33950;48.154;16.316;2022-09-12T09:35:00;19.30;95.60
48162;DHT22;33950;48.154;16.316;2022-09-12T09:37:57;19.20;95.60
48162;DHT22;33950;48.154;16.316;2022-09-12T09:40:53;19.30;95.60
48162;DHT22;33950;48.154;16.316;2022-09-12T09:43:41;19.30;95.30
48162;DHT22;33950;48.154;16.316;2022-09-12T09:46:27;19.40;95.20
48162;DHT22;33950;48.154;16.316;2022-09-12T09:49:15;19.60;95.00
48162;DHT22;33950;48.154;16.316;2022-09-12T09:52:04;19.70;94.50
48162;DHT22;33950;48.154;16.316;2022-09-12T09:54:53;19.50;94.70
48162;DHT22;33950;48.154;16.316;2022-09-12T09:57:44;19.40;94.80
48162;DHT22;33950;48.154;16.316;2022-09-12T10:00:32;19.50;95.00
48162;DHT22;33950;48.154;16.316;2022-09-12T10:03:29;19.60;94.80
48162;DHT22;33950;48.154;16.316;2022-09-12T10:06:29;19.60;94.60
48162;DHT22;33950;48.154;16.316;2022-09-12T10:09:24;19.80;94.30
48162;DHT22;33950;48.154;16.316;2022-09-12T10:12:23;19.80;94.40
48162;DHT22;33950;48.154;16.316;2022-09-12T10:15:19;19.70;94.20
48162;DHT22;33950;48.154;16.316;2022-09-12T10:18:05;19.70;94.20
48162;DHT22;33950;48.154;16.316;2022-09-12T10:20:52;19.90;94.50
48162;DHT22;33950;48.154;16.316;2022-09-12T10:23:38;19.90;93.80
48162;DHT22;33950;48.154;16.316;2022-09-12T10:26:26;19.90;94.20
48162;DHT22;33950;48.154;16.316;2022-09-12T10:29:22;20.10;94.00
48162;DHT22;33950;48.154;16.316;2022-09-12T10:32:11;20.20;93.20
48162;DHT22;33950;48.154;16.316;2022-09-12T10:35:05;20.40;93.10
48162;DHT22;33950;48.154;16.316;2022-09-12T10:37:55;20.50;93.10
48162;DHT22;33950;48.154;16.316;2022-09-12T10:40:42;20.70;92.80
48162;DHT22;33950;48.154;16.316;2022-09-12T10:43:33;20.90;92.70
48162;DHT22;33950;48.154;16.316;2022-09-12T10:46:22;21.30;92.50
48162;DHT22;33950;48.154;16.316;2022-09-12T10:49:22;21.50;91.80
48162;DHT22;33950;48.154;16.316;2022-09-12T10:52:17;21.80;91.50
48162;DHT22;33950;48.154;16.316;2022-09-12T10:55:11;22.10;91.00
48162;DHT22;33950;48.154;16.316;2022-09-12T10:58:12;22.50;90.90
48162;DHT22;33950;48.154;16.316;2022-09-12T11:01:07;22.70;89.70
48162;DHT22;33950;48.154;16.316;2022-09-12T11:04:11;22.50;89.90
48162;DHT22;33950;48.154;16.316;2022-09-12T11:07:21;22.50;90.10
48162;DHT22;33950;48.154;16.316;2022-09-12T11:10:27;23.10;88.30
48162;DHT22;33950;48.154;16.316;2022-09-12T11:13:27;23.50;89.40
48162;DHT22;33950;48.154;16.316;2022-09-12T11:16:24;23.30;85.70
48162;DHT22;33950;48.154;16.316;2022-09-12T11:19:33;23.60;87.70
48162;DHT22;33950;48.154;16.316;2022-09-12T11:22:35;23.60;86.10
48162;DHT22;33950;48.154;16.316;2022-09-12T11:25:28;23.90;86.60
48162;DHT22;33950;48.154;16.316;2022-09-12T11:28:28;23.70;87.40
48162;DHT22;33950;48.154;16.316;2022-09-12T11:31:38;24.00;86.40
48162;DHT22;33950;48.154;16.316;2022-09-12T11:34:32;24.50;84.60
48162;DHT22;33950;48.154;16.316;2022-09-12T11:37:35;24.30;83.90
48162;DHT22;33950;48.154;16.316;2022-09-12T11:40:28;24.10;84.30
48162;DHT22;33950;48.154;16.316;2022-09-12T11:43:27;24.30;84.40
48162;DHT22;33950;48.154;16.316;2022-09-12T11:46:18;24.80;82.80
48162;DHT22;33950;48.154;16.316;2022-09-12T11:49:16;25.20;84.60
48162;DHT22;33950;48.154;16.316;2022-09-12T11:52:12;25.70;81.80
48162;DHT22;33950;48.154;16.316;2022-09-12T11:55:04;25.90;80.10
48162;DHT22;33950;48.154;16.316;2022-09-12T11:57:53;25.80;81.10
48162;DHT22;33950;48.154;16.316;2022-09-12T12:00:44;26.00;78.50
48162;DHT22;33950;48.154;16.316;2022-09-12T12:03:36;25.30;78.20
48162;DHT22;33950;48.154;16.316;2022-09-12T12:06:29;25.00;79.60
48162;DHT22;33950;48.154;16.316;2022-09-12T12:09:16;25.10;79.90
48162;DHT22;33950;48.154;16.316;2022-09-12T12:12:06;25.50;80.90
48162;DHT22;33950;48.154;16.316;2022-09-12T12:14:55;25.70;78.50
48162;DHT22;33950;48.154;16.316;2022-09-12T12:17:41;25.70;78.30
48162;DHT22;33950;48.154;16.316;2022-09-12T12:20:27;25.90;77.50
48162;DHT22;33950;48.154;16.316;2022-09-12T12:23:29;25.60;77.90
48162;DHT22;33950;48.154;16.316;2022-09-12T12:29:36;25.30;77.10
48162;DHT22;33950;48.154;16.316;2022-09-12T12:32:24;25.20;78.90
48162;DHT22;33950;48.154;16.316;2022-09-12T12:35:36;25.10;77.80
48162;DHT22;33950;48.154;16.316;2022-09-12T12:38:27;24.90;77.20
48162;DHT22;33950;48.154;16.316;2022-09-12T12:41:42;25.20;78.70
48162;DHT22;33950;48.154;16.316;2022-09-12T12:44:49;25.80;76.10
48162;DHT22;33950;48.154;16.316;2022-09-12T12:47:40;26.10;75.00
48162;DHT22;33950;48.154;16.316;2022-09-12T12:50:27;25.60;74.70
48162;DHT22;33950;48.154;16.316;2022-09-12T12:53:17;25.50;77.30
48162;DHT22;33950;48.154;16.316;2022-09-12T12:56:05;25.80;77.60
48162;DHT22;33950;48.154;16.316;2022-09-12T12:58:56;26.20;77.50
48162;DHT22;33950;48.154;16.316;2022-09-12T13:01:47;26.30;77.70
48162;DHT22;33950;48.154;16.316;2022-09-12T13:04:34;26.20;75.70
48162;DHT22;33950;48.154;16.316;2022-09-12T13:07:29;26.20;75.50
48162;DHT22;33950;48.154;16.316;2022-09-12T13:10:21;26.00;75.40
48162;DHT22;33950;48.154;16.316;2022-09-12T13:13:08;25.80;75.20
48162;DHT22;33950;48.154;16.316;2022-09-12T13:15:54;25.50;75.20
48162;DHT22;33950;48.154;16.316;2022-09-12T13:18:44;25.80;73.90
48162;DHT22;33950;48.154;16.316;2022-09-12T13:21:30;26.20;73.00
48162;DHT22;33950;48.154;16.316;2022-09-12T13:24:16;26.20;73.50
48162;DHT22;33950;48.154;16.316;2022-09-12T13:27:16;26.20;73.10
48162;DHT22;33950;48.154;16.316;2022-09-12T13:30:07;25.70;74.40
48162;DHT22;33950;48.154;16.316;2022-09-12T13:32:55;25.90;75.00
48162;DHT22;33950;48.154;16.316;2022-09-12T13:36:16;25.90;73.70
48162;DHT22;33950;48.154;16.316;2022-09-12T13:39:14;25.30;73.10
48162;DHT22;33950;48.154;16.316;2022-09-12T13:45:21;24.90;75.50
48162;DHT22;33950;48.154;16.316;2022-09-12T13:48:13;24.40;74.60
48162;DHT22;33950;48.154;16.316;2022-09-12T13:51:03;24.00;75.70
48162;DHT22;33950;48.154;16.316;2022-09-12T13:53:52;23.70;75.90
48162;DHT22;33950;48.154;16.316;2022-09-12T13:56:46;23.90;77.20
48162;DHT22;33950;48.154;16.316;2022-09-12T13:59:37;23.80;76.70
48162;DHT22;33950;48.154;16.316;2022-09-12T14:02:26;24.00;77.30
48162;DHT22;33950;48.154;16.316;2022-09-12T14:05:18;23.90;77.60
48162;DHT22;33950;48.154;16.316;2022-09-12T14:08:07;23.70;78.20
48162;DHT22;33950;48.154;16.316;2022-09-12T14:10:54;23.80;78.80
48162;DHT22;33950;48.154;16.316;2022-09-12T14:13:40;23.70;79.10
48162;DHT22;33950;48.154;16.316;2022-09-12T14:16:27;23.50;79.00
48162;DHT22;33950;48.154;16.316;2022-09-12T14:19:13;23.70;79.80
48162;DHT22;33950;48.154;16.316;2022-09-12T14:22:02;24.00;78.30
48162;DHT22;33950;48.154;16.316;2022-09-12T14:24:49;24.20;78.50
48162;DHT22;33950;48.154;16.316;2022-09-12T14:27:42;24.70;79.10
48162;DHT22;33950;48.154;16.316;2022-09-12T14:30:33;25.00;77.70
48162;DHT22;33950;48.154;16.316;2022-09-12T14:33:19;25.60;77.60
48162;DHT22;33950;48.154;16.316;2022-09-12T14:36:08;25.70;77.20
48162;DHT22;33950;48.154;16.316;2022-09-12T14:38:58;25.90;78.10
48162;DHT22;33950;48.154;16.316;2022-09-12T14:41:47;26.20;77.20
48162;DHT22;33950;48.154;16.316;2022-09-12T14:44:34;26.50;77.40
48162;DHT22;33950;48.154;16.316;2022-09-12T14:47:23;26.60;76.10
48162;DHT22;33950;48.154;16.316;2022-09-12T14:50:15;26.40;75.70
48162;DHT22;33950;48.154;16.316;2022-09-12T14:53:04;25.80;74.80
48162;DHT22;33950;48.154;16.316;2022-09-12T14:55:52;25.40;75.90
48162;DHT22;33950;48.154;16.316;2022-09-12T14:58:40;25.20;76.60
48162;DHT22;33950;48.154;16.316;2022-09-12T15:01:26;25.50;77.60
48162;DHT22;33950;48.154;16.316;2022-09-12T15:04:38;25.60;76.30
48162;DHT22;33950;48.154;16.316;2022-09-12T15:07:31;25.80;75.90
48162;DHT22;33950;48.154;16.316;2022-09-12T15:10:20;25.70;75.20
48162;DHT22;33950;48.154;16.316;2022-09-12T15:13:16;25.70;76.00
48162;DHT22;33950;48.154;16.316;2022-09-12T15:16:08;25.80;74.90
48162;DHT22;33950;48.154;16.316;2022-09-12T15:18:55;25.70;73.50
48162;DHT22;33950;48.154;16.316;2022-09-12T15:21:41;25.70;74.10
48162;DHT22;33950;48.154;16.316;2022-09-12T15:24:27;25.70;74.40
48162;DHT22;33950;48.154;16.316;2022-09-12T15:27:13;25.80;73.90
48162;DHT22;33950;48.154;16.316;2022-09-12T15:29:59;25.70;74.00
48162;DHT22;33950;48.154;16.316;2022-09-12T15:32:47;25.90;73.90
48162;DHT22;33950;48.154;16.316;2022-09-12T15:35:33;25.80;73.40
48162;DHT22;33950;48.154;16.316;2022-09-12T15:38:20;25.80;72.80
48162;DHT22;33950;48.154;16.316;2022-09-12T15:41:12;25.70;73.30
48162;DHT22;33950;48.154;16.316;2022-09-12T15:43:59;25.80;73.30
48162;DHT22;33950;48.154;16.316;2022-09-12T15:46:46;25.80;72.60
48162;DHT22;33950;48.154;16.316;2022-09-12T15:49:33;25.90;72.90
48162;DHT22;33950;48.154;16.316;2022-09-12T15:52:19;25.80;72.20
48162;DHT22;33950;48.154;16.316;2022-09-12T15:55:11;25.80;72.70
48162;DHT22;33950;48.154;16.316;2022-09-12T15:57:58;25.50;72.00
48162;DHT22;33950;48.154;16.316;2022-09-12T16:00:44;25.10;72.70
48162;DHT22;33950;48.154;16.316;2022-09-12T16:03:31;24.70;73.70
48162;DHT22;33950;48.154;16.316;2022-09-12T16:06:18;24.40;73.80
48162;DHT22;33950;48.154;16.316;2022-09-12T16:09:04;24.30;75.00
48162;DHT22;33950;48.154;16.316;2022-09-12T16:11:50;24.20;74.50
48162;DHT22;33950;48.154;16.316;2022-09-12T16:14:37;24.00;75.00
48162;DHT22;33950;48.154;16.316;2022-09-12T16:17:23;23.90;75.20
48162;DHT22;33950;48.154;16.316;2022-09-12T16:20:09;23.80;75.30
48162;DHT22;33950;48.154;16.316;2022-09-12T16:22:57;23.70;75.30
48162;DHT22;33950;48.154;16.316;2022-09-12T16:25:43;23.60;75.40
48162;DHT22;33950;48.154;16.316;2022-09-12T16:28:29;23.50;75.80
48162;DHT22;33950;48.154;16.316;2022-09-12T16:31:18;23.40;75.20
48162;DHT22;33950;48.154;16.316;2022-09-12T16:34:04;23.40;76.30
48162;DHT22;33950;48.154;16.316;2022-09-12T16:36:50;23.30;76.10
48162;DHT22;33950;48.154;16.316;2022-09-12T16:39:37;23.20;76.20
48162;DHT22;33950;48.154;16.316;2022-09-12T16:42:23;23.20;76.20
48162;DHT22;33950;48.154;16.316;2022-09-12T16:45:10;23.10;75.50
48162;DHT22;33950;48.154;16.316;2022-09-12T16:47:56;23.00;75.30
48162;DHT22;33950;48.154;16.316;2022-09-12T16:50:42;22.90;75.40
48162;DHT22;33950;48.154;16.316;2022-09-12T16:53:29;22.80;75.80
48162;DHT22;33950;48.154;16.316;2022-09-12T16:56:18;22.80;76.70
48162;DHT22;33950;48.154;16.316;2022-09-12T16:59:04;22.80;76.70
48162;DHT22;33950;48.154;16.316;2022-09-12T17:01:51;22.70;76.90
48162;DHT22;33950;48.154;16.316;2022-09-12T17:04:37;22.60;77.10
48162;DHT22;33950;48.154;16.316;2022-09-12T17:07:23;22.60;77.40
48162;DHT22;33950;48.154;16.316;2022-09-12T17:10:09;22.50;77.90
48162;DHT22;33950;48.154;16.316;2022-09-12T17:12:57;22.40;78.20
48162;DHT22;33950;48.154;16.316;2022-09-12T17:15:43;22.30;78.70
48162;DHT22;33950;48.154;16.316;2022-09-12T17:18:30;22.40;79.00
48162;DHT22;33950;48.154;16.316;2022-09-12T17:21:16;22.40;79.50
48162;DHT22;33950;48.154;16.316;2022-09-12T17:24:03;22.30;79.20
48162;DHT22;33950;48.154;16.316;2022-09-12T17:26:50;22.30;78.80
48162;DHT22;33950;48.154;16.316;2022-09-12T17:29:37;22.20;78.90
48162;DHT22;33950;48.154;16.316;2022-09-12T17:32:23;22.20;79.10
48162;DHT22;33950;48.154;16.316;2022-09-12T17:35:10;22.10;78.90
48162;DHT22;33950;48.154;16.316;2022-09-12T17:37:56;22.10;79.20
48162;DHT22;33950;48.154;16.316;2022-09-12T17:40:42;22.10;79.40
48162;DHT22;33950;48.154;16.316;2022-09-12T17:43:30;22.00;79.50
48162;DHT22;33950;48.154;16.316;2022-09-12T17:46:18;22.00;80.20
48162;DHT22;33950;48.154;16.316;2022-09-12T17:49:07;21.80;80.50